Time;durP1;ratioP1;P1;durP2;ratioP2;P2;SDS_P1;SDS_P2;PMS_P1;PMS_P2;Temp;Humidity;BMP_temperature;BMP_pressure;BME280_temperature;BME280_humidity;BME280_pressure;Samples;Min_cycle;Max_cycle;Signal;HPM_P1;HPM_P2
2022/11/11 00:02:05;;;;;;;19.40;12.50;;;9.00;99.90;;;;;;6163567;23;20513;-84
2022/11/11 00:04:32;;;;;;;15.70;10.98;;;8.90;99.90;;;;;;6162596;23;20178;-82
2022/11/11 00:06:59;;;;;;;17.98;12.38;;;8.90;99.90;;;;;;6162593;23;20189;-82
2022/11/11 00:09:26;;;;;;;18.67;13.07;;;8.90;99.90;;;;;;6160934;23;20201;-84
2022/11/11 00:12:04;;;;;;;20.08;12.73;;;8.90;99.90;;;;;;6161954;23;20191;-81
2022/11/11 00:14:31;;;;;;;17.90;12.13;;;8.80;99.90;;;;;;6161481;23;20220;-83
2022/11/11 00:25:17;;;;;;;17.75;11.82;;;8.80;99.90;;;;;;6164247;23;20162;-85
2022/11/11 00:27:43;;;;;;;17.58;13.68;;;8.70;99.90;;;;;;6162175;23;20192;-82
2022/11/11 00:30:11;;;;;;;22.15;12.40;;;8.70;99.90;;;;;;6163427;23;20497;-82
2022/11/11 00:32:38;;;;;;;14.35;11.13;;;8.70;99.90;;;;;;6137982;23;20182;-84
2022/11/11 00:37:51;;;;;;;18.27;12.65;;;8.80;99.90;;;;;;6160667;23;20185;-83
2022/11/11 00:40:18;;;;;;;19.15;12.15;;;8.50;99.90;;;;;;6160553;23;20181;-86
2022/11/11 00:42:45;;;;;;;21.20;12.55;;;8.70;99.90;;;;;;6161029;23;20339;-83
2022/11/11 00:45:12;;;;;;;20.73;12.02;;;8.50;99.90;;;;;;6161278;23;20248;-86
2022/11/11 00:53:19;;;;;;;16.92;13.15;;;8.40;99.90;;;;;;6159963;23;20375;-81
2022/11/11 00:55:53;;;;;;;17.60;12.68;;;8.50;99.90;;;;;;6160511;23;20197;-82
2022/11/11 00:58:21;;;;;;;18.25;11.18;;;8.50;99.90;;;;;;6160474;23;20245;-81
2022/11/11 01:00:52;;;;;;;18.38;12.27;;;8.50;99.90;;;;;;6161275;23;20188;-84
2022/11/11 01:03:21;;;;;;;16.25;12.85;;;8.60;99.90;;;;;;6135735;23;20170;-83
2022/11/11 01:05:48;;;;;;;20.25;13.15;;;8.60;99.90;;;;;;6161083;23;20209;-82
2022/11/11 01:08:15;;;;;;;16.65;11.50;;;8.50;99.90;;;;;;6138025;23;20200;-85
2022/11/11 01:10:43;;;;;;;24.17;14.50;;;8.60;99.90;;;;;;6164274;23;20185;-83
2022/11/11 01:13:22;;;;;;;14.65;12.15;;;8.50;99.90;;;;;;6140562;23;20174;-82
2022/11/11 01:15:56;;;;;;;19.77;12.98;;;8.50;99.90;;;;;;6166735;23;20169;-84
2022/11/11 01:18:25;;;;;;;15.77;12.30;;;8.50;99.90;;;;;;6166778;23;20157;-82
2022/11/11 01:21:09;;;;;;;16.35;12.48;;;8.30;99.90;;;;;;6166506;23;20178;-84
2022/11/11 01:23:38;;;;;;;18.20;12.05;;;8.30;99.90;;;;;;6165613;23;20169;-84
2022/11/11 01:26:16;;;;;;;14.65;11.25;;;8.40;99.90;;;;;;6164197;23;20186;-84
2022/11/11 01:28:44;;;;;;;18.25;12.48;;;8.40;99.90;;;;;;6163669;23;20186;-86
2022/11/11 01:31:13;;;;;;;15.32;11.50;;;8.40;99.90;;;;;;6164006;23;20189;-82
2022/11/11 01:33:43;;;;;;;14.27;11.25;;;8.20;99.90;;;;;;6138721;23;20189;-84
2022/11/11 01:36:16;;;;;;;15.73;10.15;;;7.70;99.90;;;;;;6164344;23;20668;-83
2022/11/11 01:38:47;;;;;;;15.50;12.70;;;8.00;99.90;;;;;;6138172;23;20559;-84
2022/11/11 01:41:32;;;;;;;15.73;12.65;;;7.90;99.90;;;;;;6138105;23;20221;-83
2022/11/11 01:44:11;;;;;;;17.92;12.52;;;7.80;99.90;;;;;;6136901;23;20261;-84
2022/11/11 01:46:42;;;;;;;19.00;12.65;;;7.70;99.90;;;;;;6137405;23;20177;-82
2022/11/11 01:49:19;;;;;;;17.55;11.68;;;7.70;99.90;;;;;;6137896;23;20186;-85
2022/11/11 01:51:46;;;;;;;19.83;12.75;;;7.80;99.90;;;;;;6163397;23;20236;-84
2022/11/11 01:54:19;;;;;;;22.42;13.95;;;7.70;99.90;;;;;;6164244;23;20327;-86
2022/11/11 01:56:50;;;;;;;17.63;13.15;;;7.60;99.90;;;;;;6164169;23;20194;-85
2022/11/11 01:59:17;;;;;;;22.02;13.25;;;7.70;99.90;;;;;;6138139;23;20544;-83
2022/11/11 02:01:45;;;;;;;18.48;13.07;;;7.70;99.90;;;;;;6162951;23;20189;-84
2022/11/11 02:07:03;;;;;;;15.02;11.88;;;7.70;99.90;;;;;;6162766;23;20173;-86
2022/11/11 02:09:31;;;;;;;15.75;12.82;;;7.80;99.90;;;;;;6162827;23;20186;-84
2022/11/11 02:14:51;;;;;;;19.02;14.05;;;7.80;99.90;;;;;;6164331;23;20162;-81
2022/11/11 02:17:18;;;;;;;20.77;14.45;;;8.10;99.90;;;;;;6165965;23;20185;-82
2022/11/11 02:19:52;;;;;;;21.33;13.95;;;8.10;99.90;;;;;;6170578;23;20197;-86
2022/11/11 02:22:35;;;;;;;16.33;13.02;;;8.00;99.90;;;;;;6183201;23;20161;-87
2022/11/11 02:25:05;;;;;;;21.48;13.70;;;8.00;99.90;;;;;;6182092;23;20185;-90
2022/11/11 02:27:36;;;;;;;19.65;12.50;;;8.10;99.90;;;;;;6179342;23;20173;-91
2022/11/11 02:30:06;;;;;;;18.60;13.70;;;8.20;99.90;;;;;;6171456;23;20205;-82
2022/11/11 02:32:33;;;;;;;16.55;13.27;;;8.20;99.90;;;;;;6166207;23;20184;-83
2022/11/11 02:35:00;;;;;;;17.33;12.20;;;8.20;99.90;;;;;;6164228;23;20186;-84
2022/11/11 02:37:27;;;;;;;16.30;12.82;;;8.30;99.90;;;;;;6163111;23;20184;-84
2022/11/11 02:40:00;;;;;;;17.98;13.35;;;8.30;99.90;;;;;;6161958;23;20175;-82
2022/11/11 02:42:33;;;;;;;19.52;12.27;;;8.20;99.90;;;;;;6160013;23;20174;-84
2022/11/11 02:45:00;;;;;;;15.50;11.18;;;8.30;99.90;;;;;;6134138;23;20177;-82
2022/11/11 02:47:27;;;;;;;13.30;11.80;;;8.20;99.90;;;;;;6136460;23;20221;-83
2022/11/11 02:49:54;;;;;;;12.35;11.05;;;8.20;99.90;;;;;;6138325;23;20216;-86
2022/11/11 02:52:21;;;;;;;20.08;13.23;;;8.30;99.90;;;;;;6164467;23;20181;-88
2022/11/11 02:54:49;;;;;;;18.27;12.32;;;8.30;99.90;;;;;;6138329;23;20224;-85
2022/11/11 02:57:16;;;;;;;18.42;12.63;;;8.30;99.90;;;;;;6137450;23;20158;-83
2022/11/11 02:59:46;;;;;;;16.85;13.68;;;8.40;99.90;;;;;;6162110;23;20410;-83
2022/11/11 03:02:13;;;;;;;23.45;13.32;;;8.40;99.90;;;;;;6162160;23;20286;-81
2022/11/11 03:04:40;;;;;;;17.35;12.20;;;8.40;99.90;;;;;;6161983;23;20248;-87
2022/11/11 03:07:07;;;;;;;18.35;13.15;;;8.50;99.90;;;;;;6161455;23;20179;-83
2022/11/11 03:09:35;;;;;;;18.83;13.57;;;8.10;99.90;;;;;;6136945;23;20193;-82
2022/11/11 03:12:02;;;;;;;16.92;12.75;;;7.80;99.90;;;;;;6162956;23;20197;-84
2022/11/11 03:14:30;;;;;;;18.33;12.98;;;8.20;99.90;;;;;;6163800;23;20237;-82
2022/11/11 03:19:43;;;;;;;19.63;15.07;;;8.40;99.90;;;;;;6162473;23;20181;-85
2022/11/11 03:22:10;;;;;;;21.90;14.32;;;8.40;99.90;;;;;;6162480;23;20201;-82
2022/11/11 03:27:42;;;;;;;18.60;13.15;;;8.60;99.90;;;;;;6164669;23;20717;-83
2022/11/11 03:30:10;;;;;;;22.88;15.23;;;8.50;99.90;;;;;;6163579;23;20247;-86
2022/11/11 03:32:37;;;;;;;15.45;13.25;;;8.70;99.90;;;;;;6178533;23;20166;-88
2022/11/11 03:35:04;;;;;;;23.70;15.20;;;8.90;99.90;;;;;;6180146;23;20188;-83
2022/11/11 03:40:19;;;;;;;22.20;15.02;;;8.60;99.90;;;;;;6165688;23;20197;-84
2022/11/11 03:42:47;;;;;;;26.10;15.50;;;8.70;99.90;;;;;;6163677;23;20181;-84
2022/11/11 03:45:14;;;;;;;17.98;14.18;;;8.90;99.90;;;;;;6164629;23;20201;-85
2022/11/11 03:47:41;;;;;;;25.33;13.63;;;8.90;99.90;;;;;;6164991;23;20208;-85
2022/11/11 03:50:09;;;;;;;17.40;13.02;;;9.00;99.90;;;;;;6164967;23;20240;-85
2022/11/11 03:52:40;;;;;;;19.60;13.05;;;8.90;99.90;;;;;;6164147;23;20402;-84
2022/11/11 03:55:08;;;;;;;15.85;12.55;;;9.10;99.90;;;;;;6139216;23;20191;-83
2022/11/11 03:57:39;;;;;;;20.77;13.18;;;9.10;99.90;;;;;;6165069;23;20195;-83
2022/11/11 04:00:08;;;;;;;16.13;13.05;;;9.20;99.90;;;;;;6140595;23;20454;-83
2022/11/11 04:11:04;;;;;;;19.65;13.43;;;9.10;99.90;;;;;;6161089;23;20177;-86
2022/11/11 04:16:29;;;;;;;18.58;13.20;;;9.00;99.90;;;;;;6060551;23;20180;-83
2022/11/11 04:21:42;;;;;;;18.48;12.57;;;8.80;99.90;;;;;;6178120;23;20176;-87
2022/11/11 04:27:07;;;;;;;17.88;12.75;;;8.70;99.90;;;;;;6162923;23;20184;-82
2022/11/11 04:29:34;;;;;;;16.77;13.48;;;8.80;99.90;;;;;;6162231;23;20216;-84
2022/11/11 04:34:58;;;;;;;19.35;14.13;;;8.50;99.90;;;;;;6163436;23;20166;-81
2022/11/11 04:37:29;;;;;;;28.65;14.18;;;8.60;99.90;;;;;;6163032;23;20174;-82
2022/11/11 04:42:42;;;;;;;25.23;13.85;;;8.60;99.90;;;;;;6161912;23;20217;-83
2022/11/11 04:45:34;;;;;;;20.90;14.63;;;8.60;99.90;;;;;;6161249;23;20248;-80
2022/11/11 04:48:08;;;;;;;20.58;14.55;;;8.30;99.90;;;;;;6136040;23;20222;-81
2022/11/11 04:50:37;;;;;;;17.58;13.40;;;8.30;99.90;;;;;;6135242;23;20567;-83
2022/11/11 04:53:09;;;;;;;21.67;15.32;;;8.30;99.90;;;;;;6135779;23;20496;-83
2022/11/11 04:58:25;;;;;;;24.73;14.60;;;8.20;99.90;;;;;;6162172;23;20170;-84
2022/11/11 05:00:52;;;;;;;16.73;13.55;;;8.20;99.90;;;;;;6137064;23;20185;-82
2022/11/11 05:03:23;;;;;;;16.85;13.30;;;8.20;99.90;;;;;;6165673;23;20178;-81
2022/11/11 05:08:57;;;;;;;24.35;15.32;;;8.20;99.90;;;;;;6166502;23;20161;-82
2022/11/11 05:11:32;;;;;;;22.77;13.95;;;7.80;99.90;;;;;;6139665;23;20224;-81
2022/11/11 05:22:28;;;;;;;16.35;12.90;;;7.30;99.90;;;;;;6161235;23;20217;-81
2022/11/11 05:27:41;;;;;;;19.23;12.95;;;7.40;99.90;;;;;;6160662;23;20170;-84
2022/11/11 05:30:11;;;;;;;17.45;12.80;;;7.40;99.90;;;;;;6160757;23;20493;-82
2022/11/11 05:32:38;;;;;;;16.02;12.40;;;7.40;99.90;;;;;;6161374;23;20712;-83
2022/11/11 05:35:08;;;;;;;21.33;13.07;;;7.60;99.90;;;;;;6161868;23;20273;-84
2022/11/11 05:37:35;;;;;;;18.08;13.38;;;7.60;99.90;;;;;;6161857;23;20174;-84
2022/11/11 05:40:02;;;;;;;20.23;12.82;;;7.60;99.90;;;;;;6161409;23;20225;-81
2022/11/11 05:42:30;;;;;;;21.20;12.48;;;7.60;99.90;;;;;;6162242;23;20178;-81
2022/11/11 05:44:57;;;;;;;16.65;13.40;;;7.60;99.90;;;;;;6164614;23;20177;-84
2022/11/11 05:47:25;;;;;;;17.00;11.93;;;7.60;99.90;;;;;;6135385;23;20182;-81
2022/11/11 05:49:52;;;;;;;18.80;11.80;;;7.50;99.90;;;;;;6161966;23;20209;-82
2022/11/11 05:52:19;;;;;;;34.70;14.25;;;7.30;99.90;;;;;;6161288;23;20186;-85
2022/11/11 05:54:46;;;;;;;16.85;14.15;;;7.40;99.90;;;;;;6135251;23;20186;-81
2022/11/11 05:57:13;;;;;;;15.27;13.40;;;7.30;99.90;;;;;;6164255;23;20228;-82
2022/11/11 05:59:40;;;;;;;15.95;12.07;;;7.50;99.90;;;;;;6162957;23;20185;-85
2022/11/11 06:02:09;;;;;;;18.20;14.02;;;7.60;99.90;;;;;;6163955;23;20259;-81
2022/11/11 06:04:36;;;;;;;17.17;11.65;;;7.40;99.90;;;;;;6137310;23;20612;-81
2022/11/11 06:07:03;;;;;;;16.80;13.05;;;7.40;99.90;;;;;;6139062;23;20226;-80
2022/11/11 06:09:30;;;;;;;16.90;13.30;;;7.40;99.90;;;;;;6168589;23;20185;-81
2022/11/11 06:19:37;;;;;;;22.90;13.88;;;7.80;99.90;;;;;;6167384;23;20433;-81
2022/11/11 06:22:04;;;;;;;22.23;14.63;;;7.90;99.90;;;;;;6167656;23;20249;-81
2022/11/11 06:24:31;;;;;;;17.05;12.30;;;8.00;99.90;;;;;;6142439;23;20177;-80
2022/11/11 06:26:58;;;;;;;20.20;14.90;;;7.90;99.90;;;;;;6141894;23;20186;-81
2022/11/11 06:29:26;;;;;;;20.50;13.25;;;7.70;99.90;;;;;;6141909;23;20204;-81
2022/11/11 06:31:53;;;;;;;19.95;13.38;;;7.60;99.90;;;;;;6168945;23;20283;-81
2022/11/11 06:34:21;;;;;;;15.35;12.70;;;7.40;99.90;;;;;;6142061;23;20240;-80
2022/11/11 06:36:48;;;;;;;17.67;14.18;;;7.60;99.90;;;;;;6168280;23;20170;-81
2022/11/11 06:39:15;;;;;;;18.83;12.85;;;7.50;99.90;;;;;;6149105;23;20171;-80
2022/11/11 06:41:42;;;;;;;24.35;14.60;;;7.60;99.90;;;;;;6182639;23;20177;-80
2022/11/11 06:44:09;;;;;;;17.40;13.35;;;7.90;99.90;;;;;;6183164;23;20173;-80
2022/11/11 06:46:36;;;;;;;18.60;12.18;;;8.10;99.90;;;;;;6180808;23;20178;-81
2022/11/11 06:49:03;;;;;;;17.08;12.13;;;8.10;99.90;;;;;;6153786;23;20228;-80
2022/11/11 06:51:30;;;;;;;17.75;13.40;;;8.00;99.90;;;;;;6141753;23;20220;-81
2022/11/11 06:54:27;;;;;;;16.95;11.80;;;8.10;99.90;;;;;;6167015;23;20186;-81
2022/11/11 06:56:55;;;;;;;20.83;12.30;;;8.20;99.90;;;;;;6167210;23;20383;-81
2022/11/11 06:59:39;;;;;;;16.38;12.82;;;8.30;99.90;;;;;;6167892;23;20385;-82
2022/11/11 07:02:12;;;;;;;18.77;12.90;;;8.40;99.90;;;;;;6170343;23;20189;-81
2022/11/11 07:04:41;;;;;;;15.57;11.70;;;8.50;99.90;;;;;;6182430;23;20146;-89
2022/11/11 07:07:07;;;;;;;17.42;12.05;;;8.30;99.90;;;;;;6181210;23;20170;-82
2022/11/11 07:09:35;;;;;;;21.27;12.63;;;8.30;99.90;;;;;;6179496;23;20238;-90
2022/11/11 07:12:02;;;;;;;20.60;13.07;;;8.50;99.90;;;;;;6171229;23;20204;-85
2022/11/11 07:14:29;;;;;;;17.83;14.05;;;8.40;99.90;;;;;;6162862;23;20185;-81
2022/11/11 07:16:56;;;;;;;15.95;13.32;;;8.30;99.90;;;;;;6162007;23;20200;-81
2022/11/11 07:19:30;;;;;;;22.08;15.02;;;8.20;99.90;;;;;;6162214;23;20181;-82
2022/11/11 07:21:58;;;;;;;22.08;15.45;;;8.30;99.90;;;;;;6162711;23;20240;-81
2022/11/11 07:24:25;;;;;;;23.85;15.60;;;8.20;99.90;;;;;;6162351;23;20484;-82
2022/11/11 07:26:52;;;;;;;21.55;13.88;;;8.30;99.90;;;;;;6165066;23;20240;-80
2022/11/11 07:29:19;;;;;;;18.50;14.75;;;8.50;99.90;;;;;;6168337;23;20499;-89
2022/11/11 07:31:46;;;;;;;19.88;14.10;;;8.80;99.90;;;;;;6178881;23;20169;-84
2022/11/11 07:34:13;;;;;;;19.90;15.38;;;9.00;99.90;;;;;;6181911;23;20185;-86
2022/11/11 07:36:40;;;;;;;16.27;13.27;;;9.20;99.90;;;;;;6150846;23;20188;-81
2022/11/11 07:39:07;;;;;;;18.08;13.27;;;9.40;99.90;;;;;;6140463;23;20188;-79
2022/11/11 07:41:34;;;;;;;16.90;14.23;;;9.80;99.90;;;;;;6166290;23;20248;-82
2022/11/11 07:44:01;;;;;;;19.75;13.25;;;9.60;99.90;;;;;;6166446;23;20186;-83
2022/11/11 07:46:30;;;;;;;20.85;14.88;;;9.70;99.90;;;;;;6141087;23;20177;-84
2022/11/11 07:48:57;;;;;;;19.80;13.57;;;9.80;99.90;;;;;;6166729;23;20188;-81
2022/11/11 07:51:25;;;;;;;20.83;13.80;;;9.90;99.90;;;;;;6165330;23;20241;-85
2022/11/11 07:53:51;;;;;;;19.40;14.25;;;9.80;99.90;;;;;;6163378;23;20178;-84
2022/11/11 07:56:21;;;;;;;23.33;13.02;;;10.00;99.90;;;;;;6137235;23;20384;-85
2022/11/11 07:58:48;;;;;;;20.05;13.55;;;10.20;99.90;;;;;;6165325;23;20161;-83
2022/11/11 08:01:15;;;;;;;23.77;15.65;;;10.10;99.90;;;;;;6166533;23;20228;-80
2022/11/11 08:03:51;;;;;;;18.50;13.18;;;10.20;99.90;;;;;;6140223;23;20174;-82
2022/11/11 08:06:20;;;;;;;28.73;14.25;;;10.30;99.90;;;;;;6137192;23;20169;-82
2022/11/11 08:08:49;;;;;;;23.17;15.63;;;10.20;99.90;;;;;;6160784;23;20481;-81
2022/11/11 08:13:39;;;;;;;21.88;14.45;;;10.40;99.90;;;;;;6136497;23;20212;-82
2022/11/11 08:14:03;;;;;;;28.27;16.17;;;10.50;99.90;;;;;;6162589;23;20200;-82
2022/11/11 08:16:31;;;;;;;22.05;13.45;;;10.90;99.90;;;;;;6162056;23;20169;-82
2022/11/11 08:18:58;;;;;;;20.45;14.38;;;11.00;99.90;;;;;;6160879;23;20220;-83
2022/11/11 08:21:27;;;;;;;19.58;13.52;;;11.10;99.90;;;;;;6161426;23;20181;-82
2022/11/11 08:23:56;;;;;;;18.60;13.90;;;10.90;99.90;;;;;;6161195;23;20192;-83
2022/11/11 08:26:42;;;;;;;19.42;12.75;;;11.10;99.90;;;;;;6161568;23;20185;-82
2022/11/11 08:29:11;;;;;;;18.30;12.23;;;11.40;99.90;;;;;;6162999;23;20381;-83
2022/11/11 08:31:40;;;;;;;18.27;12.00;;;11.50;99.90;;;;;;6162272;23;20196;-82
2022/11/11 08:34:09;;;;;;;19.73;11.55;;;11.60;99.90;;;;;;6162423;23;20205;-81
2022/11/11 08:36:35;;;;;;;16.75;10.95;;;11.80;99.90;;;;;;6161823;23;20189;-82
2022/11/11 08:39:02;;;;;;;14.27;10.90;;;11.90;99.90;;;;;;6162262;23;20182;-81
2022/11/11 08:41:30;;;;;;;19.00;9.48;;;12.10;99.90;;;;;;6136084;23;20540;-82
2022/11/11 08:43:58;;;;;;;15.10;9.50;;;11.80;99.90;;;;;;6136988;23;20228;-85
2022/11/11 08:46:25;;;;;;;14.77;8.15;;;12.00;99.90;;;;;;6162073;23;20173;-88
2022/11/11 08:48:52;;;;;;;15.30;8.98;;;12.40;99.90;;;;;;6161953;23;20195;-81
2022/11/11 08:51:19;;;;;;;14.00;10.98;;;12.50;99.90;;;;;;6162803;23;20201;-83
2022/11/11 08:53:46;;;;;;;11.73;9.93;;;12.50;99.90;;;;;;6164416;23;20173;-81
2022/11/11 08:56:14;;;;;;;10.88;8.77;;;12.70;99.90;;;;;;6164777;23;20323;-82
2022/11/11 08:58:42;;;;;;;17.48;8.98;;;12.70;99.90;;;;;;6162329;23;20177;-83
2022/11/11 09:01:12;;;;;;;15.43;10.52;;;12.60;99.90;;;;;;6163451;23;20186;-85
2022/11/11 09:03:42;;;;;;;15.70;8.32;;;12.40;99.90;;;;;;6136862;23;20315;-83
2022/11/11 09:06:11;;;;;;;17.23;7.65;;;12.50;99.90;;;;;;6163533;23;20169;-82
2022/11/11 09:08:41;;;;;;;10.68;7.93;;;12.50;99.90;;;;;;6164190;23;20233;-81
2022/11/11 09:11:09;;;;;;;10.10;6.72;;;12.70;99.90;;;;;;6139344;23;20244;-81
2022/11/11 09:13:36;;;;;;;10.57;8.38;;;12.70;99.90;;;;;;6139535;23;20209;-83
2022/11/11 09:16:03;;;;;;;11.27;7.97;;;12.70;99.90;;;;;;6163022;23;20186;-84
2022/11/11 09:18:30;;;;;;;15.10;7.28;;;12.50;99.90;;;;;;6136724;23;20182;-82
2022/11/11 09:20:59;;;;;;;10.70;7.13;;;12.50;99.90;;;;;;6162289;23;20185;-81
2022/11/11 09:23:27;;;;;;;14.38;6.88;;;12.70;99.90;;;;;;6161684;23;20178;-86
2022/11/11 09:25:53;;;;;;;9.23;7.07;;;12.70;99.90;;;;;;6161314;23;20181;-87
2022/11/11 09:28:20;;;;;;;11.77;6.55;;;13.00;99.90;;;;;;6159945;23;20186;-81
2022/11/11 09:30:47;;;;;;;13.35;6.40;;;13.30;99.90;;;;;;6159809;23;20208;-82
2022/11/11 09:33:17;;;;;;;8.38;6.10;;;13.30;99.90;;;;;;6137266;23;20193;-84
2022/11/11 09:35:43;;;;;;;12.77;7.65;;;13.40;99.90;;;;;;6137649;23;20188;-81
2022/11/11 09:38:11;;;;;;;8.13;6.00;;;13.80;99.90;;;;;;6137079;23;20229;-82
2022/11/11 09:40:41;;;;;;;6.22;5.13;;;14.00;99.90;;;;;;6134915;23;20224;-84
2022/11/11 09:43:28;;;;;;;7.55;6.22;;;14.00;99.90;;;;;;6162584;23;20178;-81
2022/11/11 09:46:04;;;;;;;5.90;5.30;;;14.10;99.90;;;;;;6137687;23;20170;-82
2022/11/11 09:48:49;;;;;;;14.85;5.90;;;14.30;99.90;;;;;;6136482;23;20177;-85
2022/11/11 09:51:26;;;;;;;8.70;6.55;;;14.30;99.90;;;;;;6163113;23;20194;-82
2022/11/11 09:54:00;;;;;;;6.13;5.50;;;14.20;99.90;;;;;;6162052;23;20371;-80
2022/11/11 09:56:28;;;;;;;8.20;5.68;;;14.20;99.90;;;;;;6136737;23;20480;-85
2022/11/11 09:59:22;;;;;;;8.32;6.72;;;14.40;99.90;;;;;;6162826;23;20232;-84
2022/11/11 10:01:54;;;;;;;6.95;5.68;;;14.50;99.90;;;;;;6137969;23;20182;-81
2022/11/11 10:04:36;;;;;;;7.65;6.07;;;14.10;99.90;;;;;;6136430;23;20173;-81
2022/11/11 10:07:12;;;;;;;8.05;5.32;;;14.20;99.90;;;;;;6160515;23;20181;-83
2022/11/11 10:09:47;;;;;;;6.55;5.85;;;14.20;99.90;;;;;;6160546;23;20180;-81
2022/11/11 10:12:15;;;;;;;13.32;5.50;;;14.40;99.90;;;;;;6160309;23;20192;-82
2022/11/11 10:14:45;;;;;;;7.32;5.30;;;14.60;99.90;;;;;;6160532;23;20240;-83
2022/11/11 10:17:39;;;;;;;12.95;5.18;;;14.80;99.90;;;;;;6160401;23;20198;-81
2022/11/11 10:20:17;;;;;;;8.18;5.53;;;14.70;99.90;;;;;;6134995;23;20213;-81
2022/11/11 10:22:50;;;;;;;10.48;6.03;;;14.80;99.90;;;;;;6161367;23;20166;-82
2022/11/11 10:25:24;;;;;;;7.85;5.00;;;15.00;99.90;;;;;;6161777;23;20177;-84
2022/11/11 10:27:54;;;;;;;9.52;5.97;;;15.00;99.90;;;;;;6137446;23;20170;-85
2022/11/11 10:30:28;;;;;;;8.35;5.60;;;14.90;99.90;;;;;;6136695;23;20425;-84
2022/11/11 10:33:02;;;;;;;5.95;5.35;;;15.00;99.90;;;;;;6162239;23;20180;-83
2022/11/11 10:35:32;;;;;;;7.18;5.10;;;14.90;99.90;;;;;;6166188;23;20170;-82
2022/11/11 10:38:26;;;;;;;10.27;5.57;;;14.60;99.90;;;;;;6162253;23;20220;-80
2022/11/11 10:41:02;;;;;;;8.02;6.00;;;14.40;99.90;;;;;;6159811;23;20204;-86
2022/11/11 10:43:29;;;;;;;9.07;6.75;;;14.50;99.90;;;;;;6133270;23;20181;-84
2022/11/11 10:46:14;;;;;;;7.70;6.00;;;14.70;99.90;;;;;;6159864;23;20181;-84
2022/11/11 10:49:20;;;;;;;7.50;6.55;;;15.10;99.90;;;;;;6160365;23;20496;-82
2022/11/11 10:52:08;;;;;;;7.80;5.95;;;15.10;99.90;;;;;;6158252;23;20382;-84
2022/11/11 10:54:41;;;;;;;7.00;5.82;;;15.10;99.90;;;;;;6132864;23;20220;-83
2022/11/11 10:57:36;;;;;;;8.82;5.88;;;14.90;99.90;;;;;;6134651;23;20185;-82
2022/11/11 11:00:07;;;;;;;10.35;6.25;;;14.70;99.90;;;;;;6158731;23;20173;-84
2022/11/11 11:03:01;;;;;;;8.30;5.50;;;14.90;99.90;;;;;;6158835;23;20236;-85
2022/11/11 11:05:55;;;;;;;7.20;5.13;;;15.10;99.90;;;;;;6159105;23;20439;-83
2022/11/11 11:08:30;;;;;;;7.83;5.47;;;15.10;99.90;;;;;;6131791;23;20704;-82
2022/11/11 11:11:01;;;;;;;8.90;8.00;;;15.30;99.90;;;;;;6158604;23;20427;-85
2022/11/11 11:14:05;;;;;;;10.43;6.00;;;15.20;99.90;;;;;;6159046;23;20165;-82
2022/11/11 11:16:37;;;;;;;9.53;6.03;;;15.00;99.90;;;;;;6132735;23;20571;-81
2022/11/11 11:19:17;;;;;;;6.53;5.23;;;15.10;99.90;;;;;;6158342;23;20359;-81
2022/11/11 11:21:52;;;;;;;11.60;5.70;;;15.20;99.90;;;;;;6164580;23;20352;-82
2022/11/11 11:24:20;;;;;;;7.87;5.67;;;15.30;99.90;;;;;;6138621;23;20383;-82
2022/11/11 11:26:50;;;;;;;10.43;5.80;;;15.40;99.90;;;;;;6163590;23;20735;-81
2022/11/11 11:29:31;;;;;;;8.50;5.30;;;15.40;99.90;;;;;;6150419;23;20415;-88
2022/11/11 11:32:18;;;;;;;14.13;6.73;;;15.20;99.90;;;;;;6153686;23;20466;-86
2022/11/11 11:34:48;;;;;;;14.83;7.00;;;15.00;99.90;;;;;;6152603;23;20412;-82
2022/11/11 11:37:16;;;;;;;10.93;5.77;;;15.10;99.90;;;;;;6167121;23;20421;-84
2022/11/11 11:39:43;;;;;;;11.90;6.27;;;15.10;99.90;;;;;;6137963;23;20470;-85
2022/11/11 11:42:34;;;;;;;9.50;6.23;;;15.10;99.90;;;;;;6136817;23;20462;-83
2022/11/11 11:45:28;;;;;;;8.57;5.90;;;15.20;99.90;;;;;;6138073;23;20487;-82
2022/11/11 11:48:16;;;;;;;7.73;5.40;;;15.30;99.90;;;;;;6172175;23;20371;-82
2022/11/11 11:51:06;;;;;;;9.45;5.47;;;15.30;99.90;;;;;;6159780;23;20450;-84
2022/11/11 11:53:41;;;;;;;14.27;7.53;;;15.30;99.90;;;;;;6182181;23;20157;-85
2022/11/11 11:56:29;;;;;;;7.97;5.30;;;15.40;99.90;;;;;;6154429;23;20374;-87
2022/11/11 11:58:59;;;;;;;11.57;6.00;;;15.50;99.90;;;;;;6170249;23;20439;-83
2022/11/11 12:01:41;;;;;;;12.43;6.20;;;15.40;99.90;;;;;;6136884;23;20434;-83
2022/11/11 12:04:31;;;;;;;10.43;5.75;;;15.30;99.90;;;;;;6136878;23;20411;-85
2022/11/11 12:07:25;;;;;;;8.90;5.37;;;15.00;99.90;;;;;;6162402;23;20476;-82
2022/11/11 12:10:22;;;;;;;10.20;6.60;;;15.00;99.90;;;;;;6162185;23;20639;-81
2022/11/11 12:13:11;;;;;;;10.63;6.60;;;15.00;99.90;;;;;;6161786;23;20690;-85
2022/11/11 12:15:42;;;;;;;9.27;5.97;;;14.80;99.90;;;;;;6162229;23;20463;-84
2022/11/11 12:18:42;;;;;;;8.52;5.20;;;14.80;99.90;;;;;;6161811;23;20415;-88
2022/11/11 12:21:14;;;;;;;6.80;4.53;;;14.80;99.90;;;;;;6162574;23;20360;-85
2022/11/11 12:23:49;;;;;;;8.67;6.20;;;15.00;99.90;;;;;;6161396;23;20395;-82
2022/11/11 12:26:33;;;;;;;11.53;4.77;;;15.10;99.90;;;;;;6163382;23;20406;-86
2022/11/11 12:29:12;;;;;;;6.55;4.75;;;15.20;99.90;;;;;;6161915;23;20745;-84
2022/11/11 12:31:58;;;;;;;7.50;5.37;;;15.50;99.90;;;;;;6162503;23;20332;-84
2022/11/11 12:34:35;;;;;;;8.33;5.07;;;15.30;99.90;;;;;;6162015;23;20392;-85
2022/11/11 12:37:40;;;;;;;7.30;5.53;;;15.50;99.90;;;;;;6138741;23;20806;-85
2022/11/11 12:40:28;;;;;;;7.30;6.30;;;15.50;99.90;;;;;;6139647;23;20392;-85
2022/11/11 12:43:19;;;;;;;9.00;5.63;;;15.50;99.90;;;;;;6163839;23;20410;-86
2022/11/11 12:45:49;;;;;;;6.47;4.93;;;15.70;99.90;;;;;;6163689;23;20427;-82
2022/11/11 12:48:44;;;;;;;11.10;6.93;;;15.60;99.90;;;;;;6162828;23;20394;-85
2022/11/11 12:51:19;;;;;;;15.17;5.43;;;15.30;99.90;;;;;;6164358;23;20448;-82
2022/11/11 12:53:58;;;;;;;7.07;5.03;;;15.30;99.90;;;;;;6162694;23;20384;-85
2022/11/11 12:56:50;;;;;;;6.07;4.80;;;15.40;99.90;;;;;;6136675;23;20423;-84
2022/11/11 12:59:54;;;;;;;6.35;4.53;;;15.40;99.90;;;;;;6165038;23;20459;-82
2022/11/11 13:02:45;;;;;;;6.50;4.70;;;15.30;99.90;;;;;;6166188;23;20221;-84
2022/11/11 13:05:42;;;;;;;8.17;5.50;;;15.30;99.90;;;;;;6143256;23;20399;-84
2022/11/11 13:08:41;;;;;;;6.60;4.73;;;15.30;99.90;;;;;;6167362;23;20439;-82
2022/11/11 13:12:01;;;;;;;11.10;4.83;;;15.20;99.90;;;;;;6162699;23;20485;-85
2022/11/11 13:14:57;;;;;;;7.13;4.97;;;15.10;99.90;;;;;;6099829;23;20419;-85
2022/11/11 13:17:25;;;;;;;6.85;4.45;;;15.00;99.90;;;;;;6147053;23;20958;-84
2022/11/11 13:20:02;;;;;;;11.03;5.30;;;15.00;99.90;;;;;;6163863;23;20193;-85
2022/11/11 13:22:32;;;;;;;9.43;5.23;;;14.90;99.90;;;;;;6163812;23;20411;-83
2022/11/11 13:25:07;;;;;;;8.50;4.30;;;14.90;99.90;;;;;;6164030;23;20415;-83
2022/11/11 13:28:14;;;;;;;5.53;4.03;;;15.00;99.90;;;;;;6142110;23;20390;-82
2022/11/11 13:31:04;;;;;;;8.40;4.80;;;14.90;99.90;;;;;;6146271;23;20412;-86
2022/11/11 13:33:45;;;;;;;5.88;4.93;;;14.90;99.90;;;;;;6135466;23;20726;-83
2022/11/11 13:36:19;;;;;;;6.75;4.88;;;15.00;99.90;;;;;;6166331;23;20189;-85
2022/11/11 13:38:53;;;;;;;9.98;5.22;;;15.10;99.90;;;;;;6116483;23;20244;-85
2022/11/11 13:41:41;;;;;;;7.47;4.83;;;15.20;99.90;;;;;;6164543;23;20173;-85
2022/11/11 13:44:28;;;;;;;9.30;6.20;;;15.00;99.90;;;;;;6164975;23;20387;-83
2022/11/11 13:47:11;;;;;;;9.55;7.45;;;14.70;99.90;;;;;;6166139;23;20166;-81
2022/11/11 13:49:51;;;;;;;8.77;6.95;;;14.80;99.90;;;;;;6163898;23;20236;-84
2022/11/11 13:52:23;;;;;;;11.43;7.18;;;14.70;99.90;;;;;;6165779;23;20263;-84
2022/11/11 13:55:00;;;;;;;9.80;6.13;;;14.80;99.90;;;;;;6164867;23;20185;-84
2022/11/11 13:57:31;;;;;;;9.85;6.50;;;14.70;99.90;;;;;;6165856;23;20185;-87
2022/11/11 14:00:30;;;;;;;9.63;6.22;;;14.70;99.90;;;;;;6139122;23;20185;-84
2022/11/11 14:03:16;;;;;;;10.23;6.63;;;14.70;99.90;;;;;;6147576;23;20178;-83
2022/11/11 14:05:44;;;;;;;9.18;7.15;;;14.70;99.90;;;;;;6165925;23;20198;-84
2022/11/11 14:08:49;;;;;;;12.10;7.70;;;14.70;99.90;;;;;;6164381;23;20232;-84
2022/11/11 14:11:32;;;;;;;8.27;5.60;;;14.70;99.90;;;;;;6163268;23;20394;-84
2022/11/11 14:14:31;;;;;;;13.80;6.28;;;14.60;99.90;;;;;;6161374;23;20260;-86
2022/11/11 14:17:02;;;;;;;9.38;6.10;;;14.40;99.90;;;;;;6154553;23;20182;-84
2022/11/11 14:19:31;;;;;;;11.75;7.15;;;14.40;99.90;;;;;;6150364;23;20177;-87
2022/11/11 14:22:29;;;;;;;10.50;5.80;;;14.30;99.90;;;;;;6140057;23;20213;-87
2022/11/11 14:25:18;;;;;;;15.43;6.90;;;14.10;99.90;;;;;;6137763;23;20457;-85
2022/11/11 14:27:47;;;;;;;8.55;6.30;;;14.10;99.90;;;;;;6163507;23;20162;-85
2022/11/11 14:30:38;;;;;;;9.65;7.13;;;13.70;99.90;;;;;;6161791;23;20201;-84